createdAt,value
2018-08-14T00:01:07.707Z,18.00
2018-08-14T00:05:16.033Z,18.10
2018-08-14T00:09:24.324Z,18.00
2018-08-14T00:13:32.707Z,18.00
2018-08-14T00:17:41.313Z,18.00
2018-08-14T00:21:49.694Z,18.00
2018-08-14T00:25:58.069Z,18.00
2018-08-14T00:30:09.908Z,18.10
2018-08-14T00:34:18.245Z,18.00
2018-08-14T00:38:26.525Z,18.10
2018-08-14T00:42:34.846Z,17.90
2018-08-14T00:46:43.238Z,17.90
2018-08-14T00:50:51.606Z,18.00
2018-08-14T00:54:59.913Z,18.00
2018-08-14T00:59:08.419Z,18.00
2018-08-14T01:03:16.736Z,18.00
2018-08-14T01:07:25.039Z,18.00
2018-08-14T01:11:33.346Z,18.00
2018-08-14T01:15:41.758Z,18.00
2018-08-14T01:19:50.107Z,18.10
2018-08-14T01:23:58.410Z,17.90
2018-08-14T01:28:06.852Z,18.00
2018-08-14T01:32:15.206Z,18.00
2018-08-14T01:36:23.527Z,17.80
2018-08-14T01:40:31.802Z,18.00
2018-08-14T01:44:40.152Z,17.90
2018-08-14T01:48:48.488Z,17.90
2018-08-14T01:52:56.765Z,18.00
2018-08-14T01:57:05.095Z,17.90
2018-08-14T02:01:13.389Z,18.10
2018-08-14T02:05:21.730Z,18.10
2018-08-14T02:09:30.034Z,18.10
2018-08-14T02:13:38.408Z,18.10
2018-08-14T02:17:46.691Z,18.10
2018-08-14T02:21:55.034Z,18.10
2018-08-14T02:26:03.350Z,18.20
2018-08-14T02:30:11.682Z,18.30
2018-08-14T02:34:20.012Z,18.20
2018-08-14T02:38:28.332Z,18.20
2018-08-14T02:42:36.654Z,18.20
2018-08-14T02:46:44.987Z,18.30
2018-08-14T02:50:53.296Z,18.30
2018-08-14T02:55:01.654Z,18.30
2018-08-14T02:59:10.001Z,18.30
2018-08-14T03:03:18.351Z,18.20
2018-08-14T03:07:26.618Z,18.20
2018-08-14T03:11:34.934Z,18.20
2018-08-14T03:15:43.289Z,18.20
2018-08-14T03:19:51.615Z,18.10
2018-08-14T03:24:00.364Z,18.10
2018-08-14T03:28:08.672Z,18.10
2018-08-14T03:32:17.235Z,18.20
2018-08-14T03:36:25.718Z,18.20
2018-08-14T03:40:34.048Z,18.10
2018-08-14T03:44:42.358Z,18.20
2018-08-14T03:48:50.646Z,18.20
2018-08-14T03:52:58.931Z,18.20
2018-08-14T03:57:07.344Z,18.30
2018-08-14T04:01:15.627Z,18.30
2018-08-14T04:05:23.919Z,18.20
2018-08-14T04:09:32.370Z,18.20
2018-08-14T04:13:40.687Z,18.10
2018-08-14T04:17:52.782Z,18.20
2018-08-14T04:22:01.106Z,18.30
2018-08-14T04:26:09.437Z,18.30
2018-08-14T04:30:17.868Z,18.20
2018-08-14T04:34:26.247Z,18.20
2018-08-14T04:42:43.275Z,18.20
2018-08-14T04:46:51.555Z,18.30
2018-08-14T04:50:59.849Z,18.20
2018-08-14T04:55:09.647Z,18.30
2018-08-14T04:59:17.927Z,18.10
2018-08-14T05:03:26.263Z,18.20
2018-08-14T05:07:34.581Z,18.20
2018-08-14T05:11:43.322Z,18.30
2018-08-14T05:15:51.671Z,18.20
2018-08-14T05:19:59.982Z,18.20
2018-08-14T05:24:08.287Z,18.30
2018-08-14T05:28:16.638Z,18.20
2018-08-14T05:32:24.921Z,18.10
2018-08-14T05:36:33.244Z,18.10
2018-08-14T05:40:41.539Z,18.10
2018-08-14T05:44:49.883Z,18.20
2018-08-14T05:48:58.212Z,18.20
2018-08-14T05:53:06.602Z,18.10
2018-08-14T05:57:14.832Z,18.30
2018-08-14T06:01:23.155Z,18.30
2018-08-14T06:05:31.485Z,18.30
2018-08-14T06:09:39.781Z,18.40
2018-08-14T06:13:48.112Z,18.20
2018-08-14T06:17:56.447Z,18.20
2018-08-14T06:22:04.774Z,18.30
2018-08-14T06:26:13.101Z,18.30
2018-08-14T06:30:21.431Z,18.50
2018-08-14T06:34:29.893Z,18.50
2018-08-14T06:38:38.175Z,18.50
2018-08-14T06:42:46.509Z,18.60
2018-08-14T06:46:54.873Z,18.60
2018-08-14T06:51:03.191Z,18.60
2018-08-14T06:55:11.706Z,18.60
2018-08-14T06:59:19.998Z,18.70
2018-08-14T07:03:28.332Z,18.60
2018-08-14T07:07:36.653Z,18.50
2018-08-14T07:11:44.986Z,18.60
2018-08-14T07:15:53.306Z,18.60
2018-08-14T07:20:01.672Z,18.70
2018-08-14T07:24:10.110Z,18.80
2018-08-14T07:28:18.481Z,18.90
2018-08-14T07:32:26.825Z,18.90
2018-08-14T07:36:35.179Z,19.00
2018-08-14T07:40:43.487Z,19.00
2018-08-14T07:44:51.770Z,19.00
2018-08-14T07:49:00.013Z,18.90
2018-08-14T07:53:08.380Z,18.90
2018-08-14T08:01:24.770Z,19.00
2018-08-14T08:05:33.063Z,19.00
2018-08-14T08:09:41.406Z,19.00
2018-08-14T08:13:49.764Z,19.00
2018-08-14T08:17:58.516Z,19.20
2018-08-14T08:22:06.874Z,19.40
2018-08-14T08:26:15.176Z,19.50
2018-08-14T08:30:23.519Z,19.50
2018-08-14T08:34:31.845Z,19.80
2018-08-14T08:38:40.185Z,20.00
2018-08-14T08:42:48.559Z,19.80
2018-08-14T08:46:56.947Z,19.90
2018-08-14T08:55:17.385Z,20.10
2018-08-14T08:59:25.713Z,20.10
2018-08-14T09:03:34.065Z,20.00
2018-08-14T09:07:42.487Z,19.80
2018-08-14T09:11:50.782Z,19.80
2018-08-14T09:15:59.149Z,19.80
2018-08-14T09:20:08.886Z,19.80
2018-08-14T09:24:17.228Z,20.00
2018-08-14T09:28:25.546Z,20.10
2018-08-14T09:32:33.915Z,20.30
2018-08-14T09:36:42.383Z,20.30
2018-08-14T09:40:50.938Z,20.50
2018-08-14T09:44:59.505Z,20.50
2018-08-14T09:49:07.970Z,20.50
2018-08-14T09:53:16.366Z,20.50
2018-08-14T09:57:24.678Z,20.50
2018-08-14T10:01:39.820Z,20.70
2018-08-14T10:05:49.144Z,21.00
2018-08-14T10:09:57.429Z,20.90
2018-08-14T10:14:05.735Z,20.90
2018-08-14T10:18:19.286Z,20.80
2018-08-14T10:22:27.578Z,21.10
2018-08-14T10:26:35.999Z,21.30
2018-08-14T10:30:44.406Z,21.10
2018-08-14T10:34:52.754Z,21.30
2018-08-14T10:39:01.371Z,21.60
2018-08-14T10:43:09.786Z,21.80
2018-08-14T10:47:18.180Z,21.70
2018-08-14T10:51:26.557Z,22.20
2018-08-14T10:55:34.877Z,22.20
2018-08-14T10:59:43.215Z,22.00
2018-08-14T11:03:51.481Z,22.10
2018-08-14T11:07:59.830Z,22.60
2018-08-14T11:12:12.541Z,22.70
2018-08-14T11:16:20.874Z,22.60
2018-08-14T11:20:29.243Z,22.40
2018-08-14T11:24:37.693Z,22.30
2018-08-14T11:28:46.122Z,22.00
2018-08-14T11:32:54.895Z,22.20
2018-08-14T11:37:03.391Z,22.20
2018-08-14T11:41:11.757Z,22.20
2018-08-14T11:45:23.213Z,22.20
2018-08-14T11:49:31.541Z,22.20
2018-08-14T11:53:39.896Z,22.40
2018-08-14T11:57:48.982Z,22.90
2018-08-14T12:01:57.328Z,23.40
2018-08-14T12:06:05.980Z,23.70
2018-08-14T12:10:15.484Z,23.50
2018-08-14T12:14:23.850Z,23.80
2018-08-14T12:18:32.218Z,24.30
2018-08-14T12:22:40.711Z,24.10
2018-08-14T12:26:49.047Z,24.50
2018-08-14T12:30:57.419Z,24.60
2018-08-14T12:35:06.562Z,24.50
2018-08-14T12:39:14.870Z,24.70
2018-08-14T12:43:23.186Z,24.40
2018-08-14T12:47:31.576Z,24.20
2018-08-14T12:51:39.983Z,24.30
2018-08-14T12:55:48.381Z,24.50
2018-08-14T12:59:56.701Z,24.50
2018-08-14T13:04:05.146Z,24.70
2018-08-14T13:08:13.451Z,24.80
2018-08-14T13:12:21.718Z,24.80
2018-08-14T13:16:30.064Z,24.30
2018-08-14T13:20:38.545Z,24.00
2018-08-14T13:24:46.777Z,24.20
2018-08-14T13:28:55.122Z,24.60
2018-08-14T13:33:03.945Z,25.00
2018-08-14T13:37:12.244Z,25.10
2018-08-14T13:41:20.592Z,25.10
2018-08-14T13:45:28.912Z,24.90
2018-08-14T13:49:37.213Z,24.80
2018-08-14T13:53:45.645Z,24.40
2018-08-14T13:57:57.120Z,24.20
2018-08-14T14:02:05.488Z,23.90
2018-08-14T14:06:13.883Z,24.30
2018-08-14T14:10:22.671Z,23.90
2018-08-14T14:14:31.020Z,24.20
2018-08-14T14:18:39.410Z,24.40
2018-08-14T14:22:47.796Z,24.20
2018-08-14T14:26:56.261Z,24.10
2018-08-14T14:31:04.642Z,24.20
2018-08-14T14:35:13.457Z,24.60
2018-08-14T14:39:21.828Z,24.90
2018-08-14T14:43:30.189Z,25.10
2018-08-14T14:47:38.575Z,25.10
2018-08-14T14:51:46.879Z,25.20
2018-08-14T14:55:55.182Z,25.40
2018-08-14T15:00:03.549Z,25.30
2018-08-14T15:04:12.138Z,25.20
2018-08-14T15:08:20.655Z,25.00
2018-08-14T15:12:29.047Z,25.20
2018-08-14T15:16:37.616Z,25.10
2018-08-14T15:20:46.012Z,24.90
2018-08-14T15:24:54.383Z,25.10
2018-08-14T15:29:23.065Z,25.10
2018-08-14T15:33:31.434Z,25.10
2018-08-14T15:37:41.905Z,24.80
2018-08-14T15:41:50.298Z,24.40
2018-08-14T15:45:58.659Z,24.40
2018-08-14T15:50:07.132Z,24.30
2018-08-14T15:54:15.785Z,24.20
2018-08-14T15:58:24.203Z,24.30
2018-08-14T16:02:32.510Z,24.10
2018-08-14T16:06:40.911Z,23.90
2018-08-14T16:10:49.289Z,23.90
2018-08-14T16:14:57.622Z,23.70
2018-08-14T16:19:06.218Z,23.60
2018-08-14T16:23:15.010Z,23.50
2018-08-14T16:27:23.347Z,23.40
2018-08-14T16:31:31.708Z,23.20
2018-08-14T16:35:40.026Z,23.10
2018-08-14T16:39:48.361Z,23.00
2018-08-14T16:43:56.696Z,22.90
2018-08-14T16:48:05.550Z,23.00
2018-08-14T16:52:13.950Z,23.20
2018-08-14T16:56:22.318Z,23.10
2018-08-14T17:00:37.109Z,23.10
2018-08-14T17:04:45.429Z,22.90
2018-08-14T17:08:53.875Z,23.00
2018-08-14T17:13:02.220Z,23.00
2018-08-14T17:17:10.574Z,22.90
2018-08-14T17:21:17.874Z,22.90
2018-08-14T17:25:26.205Z,22.80
2018-08-14T17:29:34.586Z,22.80
2018-08-14T17:33:42.885Z,22.80
2018-08-14T17:37:52.058Z,22.80
2018-08-14T17:42:00.488Z,22.60
2018-08-14T17:46:08.763Z,22.60
2018-08-14T17:50:17.260Z,22.60
2018-08-14T17:54:25.661Z,22.60
2018-08-14T17:58:33.978Z,22.40
2018-08-14T18:02:42.807Z,22.40
2018-08-14T18:06:51.112Z,22.20
2018-08-14T18:10:59.443Z,22.10
2018-08-14T18:15:09.412Z,22.10
2018-08-14T18:19:17.699Z,22.20
2018-08-14T18:23:26.039Z,22.00
2018-08-14T18:27:34.550Z,22.00
2018-08-14T18:31:42.873Z,21.80
2018-08-14T18:35:51.117Z,21.70
2018-08-14T18:39:59.442Z,21.60
2018-08-14T18:44:07.911Z,21.70
2018-08-14T18:48:16.320Z,21.70
2018-08-14T18:52:24.613Z,21.80
2018-08-14T18:56:32.893Z,21.80
2018-08-14T19:00:41.220Z,21.60
2018-08-14T19:04:49.542Z,21.70
2018-08-14T19:08:57.929Z,21.60
2018-08-14T19:13:06.313Z,21.50
2018-08-14T19:17:14.638Z,21.50
2018-08-14T19:21:24.029Z,21.50
2018-08-14T19:25:32.376Z,21.60
2018-08-14T19:29:45.005Z,21.50
2018-08-14T19:33:53.338Z,21.50
2018-08-14T19:38:01.659Z,21.50
2018-08-14T19:42:10.270Z,21.40
2018-08-14T19:46:18.575Z,21.40
2018-08-14T19:50:26.880Z,21.40
2018-08-14T19:54:35.222Z,21.50
2018-08-14T19:58:43.575Z,21.40
2018-08-14T20:02:52.282Z,21.30
2018-08-14T20:07:00.577Z,21.20
2018-08-14T20:11:08.964Z,21.30
2018-08-14T20:15:22.998Z,21.20
2018-08-14T20:19:33.582Z,21.40
2018-08-14T20:23:41.940Z,21.20
2018-08-14T20:27:50.359Z,21.20
2018-08-14T20:31:58.743Z,21.30
2018-08-14T20:36:07.180Z,21.30
2018-08-14T20:40:17.872Z,21.30
2018-08-14T20:44:26.181Z,21.20
2018-08-14T20:48:34.549Z,21.20
2018-08-14T20:52:43.134Z,21.20
2018-08-14T20:56:51.588Z,21.20
2018-08-14T21:00:59.908Z,21.30
2018-08-14T21:05:08.204Z,21.20
2018-08-14T21:09:16.526Z,21.10
2018-08-14T21:13:24.867Z,21.00
2018-08-14T21:17:33.220Z,20.70
2018-08-14T21:21:41.588Z,20.60
2018-08-14T21:25:51.006Z,20.50
2018-08-14T21:29:59.352Z,20.50
2018-08-14T21:34:07.842Z,20.40
2018-08-14T21:38:16.191Z,20.40
2018-08-14T21:42:24.541Z,20.40
2018-08-14T21:46:32.887Z,20.40
2018-08-14T21:50:41.166Z,20.20
2018-08-14T21:54:49.461Z,20.10
2018-08-14T21:58:57.751Z,20.10
2018-08-14T22:03:06.231Z,20.00
2018-08-14T22:11:22.697Z,19.70
2018-08-14T22:15:31.083Z,19.70
2018-08-14T22:19:39.514Z,19.70
2018-08-14T22:23:47.838Z,19.70
2018-08-14T22:27:56.150Z,19.60
2018-08-14T22:32:04.478Z,19.50
2018-08-14T22:36:12.811Z,19.60
2018-08-14T22:40:21.202Z,19.50
2018-08-14T22:44:29.502Z,19.50
2018-08-14T22:48:37.906Z,19.50
2018-08-14T22:52:46.178Z,19.40
2018-08-14T22:56:54.499Z,19.40
2018-08-14T23:01:02.800Z,19.40
2018-08-14T23:05:11.299Z,19.40
2018-08-14T23:09:19.586Z,19.40
2018-08-14T23:13:27.937Z,19.40
2018-08-14T23:17:36.276Z,19.50
2018-08-14T23:21:44.590Z,19.40
2018-08-14T23:25:52.943Z,19.40
2018-08-14T23:30:01.268Z,19.40
2018-08-14T23:34:09.632Z,19.40
2018-08-14T23:38:17.903Z,19.40
2018-08-14T23:42:26.256Z,19.40
2018-08-14T23:46:34.581Z,19.40
2018-08-14T23:50:42.885Z,19.30
2018-08-14T23:54:51.137Z,19.30
2018-08-14T23:58:59.477Z,19.40
